createdAt,value
2024-03-01T00:01:15.865Z,5.90
2024-03-01T00:03:43.968Z,5.90
2024-03-01T00:06:12.056Z,5.90
2024-03-01T00:08:40.166Z,5.80
2024-03-01T00:11:10.313Z,5.80
2024-03-01T00:13:38.470Z,5.80
2024-03-01T00:16:07.276Z,5.70
2024-03-01T00:18:35.416Z,5.70
2024-03-01T00:21:03.529Z,5.70
2024-03-01T00:23:31.655Z,5.60
2024-03-01T00:25:59.750Z,5.60
2024-03-01T00:28:29.254Z,5.60
2024-03-01T00:30:57.451Z,5.50
2024-03-01T00:33:25.657Z,5.50
2024-03-01T00:35:53.813Z,5.50
2024-03-01T00:38:22.628Z,5.50
2024-03-01T00:40:50.852Z,5.50
2024-03-01T00:43:20.445Z,5.50
2024-03-01T00:45:50.083Z,5.50
2024-03-01T00:48:18.185Z,5.40
2024-03-01T00:50:46.296Z,5.40
2024-03-01T00:53:14.416Z,5.50
2024-03-01T00:55:42.617Z,5.50
2024-03-01T00:58:10.837Z,5.40
2024-03-01T01:00:38.965Z,5.20
2024-03-01T01:03:08.474Z,5.20
2024-03-01T01:05:36.592Z,5.20
2024-03-01T01:08:05.232Z,5.10
2024-03-01T01:10:33.621Z,5.10
2024-03-01T01:13:01.831Z,5.10
2024-03-01T01:15:30.070Z,5.10
2024-03-01T01:17:58.208Z,5.10
2024-03-01T01:20:27.831Z,5.10
2024-03-01T01:22:56.034Z,5.10
2024-03-01T01:25:24.359Z,5.10
2024-03-01T01:27:53.175Z,5.00
2024-03-01T01:30:21.418Z,5.00
2024-03-01T01:32:49.636Z,5.00
2024-03-01T01:35:18.046Z,5.00
2024-03-01T01:37:47.608Z,4.90
2024-03-01T01:40:16.066Z,4.80
2024-03-01T01:42:44.287Z,4.90
2024-03-01T01:45:13.230Z,4.80
2024-03-01T01:47:41.512Z,4.90
2024-03-01T01:50:11.304Z,5.00
2024-03-01T01:52:40.237Z,4.90
2024-03-01T01:55:12.050Z,4.90
2024-03-01T01:57:42.647Z,4.90
2024-03-01T02:00:12.896Z,4.90
2024-03-01T02:02:41.883Z,4.90
2024-03-01T02:05:10.558Z,4.80
2024-03-01T02:07:39.588Z,4.80
2024-03-01T02:10:17.904Z,4.80
2024-03-01T02:12:57.954Z,4.80
2024-03-01T02:15:26.953Z,4.80
2024-03-01T02:17:55.208Z,4.80
2024-03-01T02:20:26.894Z,4.80
2024-03-01T02:23:01.928Z,4.80
2024-03-01T02:25:31.552Z,4.80
2024-03-01T02:27:59.853Z,4.80
2024-03-01T02:30:27.951Z,4.80
2024-03-01T02:32:56.227Z,4.80
2024-03-01T02:35:24.316Z,4.80
2024-03-01T02:37:52.469Z,4.80
2024-03-01T02:40:20.880Z,4.80
2024-03-01T02:42:50.548Z,4.80
2024-03-01T02:45:18.859Z,4.80
2024-03-01T02:47:47.205Z,4.80
2024-03-01T02:50:15.468Z,4.80
2024-03-01T02:52:43.621Z,4.70
2024-03-01T02:55:12.168Z,4.80
2024-03-01T02:57:40.273Z,4.80
2024-03-01T03:00:12.968Z,4.80
2024-03-01T03:02:41.226Z,4.80
2024-03-01T03:05:10.849Z,4.80
2024-03-01T03:07:39.955Z,4.80
2024-03-01T03:10:09.175Z,4.80
2024-03-01T03:12:37.515Z,4.80
2024-03-01T03:15:09.390Z,4.80
2024-03-01T03:17:39.430Z,4.80
2024-03-01T03:20:11.943Z,4.80
2024-03-01T03:22:41.236Z,4.80
2024-03-01T03:25:10.615Z,4.70
2024-03-01T03:27:38.864Z,4.70
2024-03-01T03:30:10.836Z,4.70
2024-03-01T03:32:40.375Z,4.70
2024-03-01T03:35:09.880Z,4.70
2024-03-01T03:37:37.979Z,4.70
2024-03-01T03:40:15.477Z,4.60
2024-03-01T03:42:44.557Z,4.60
2024-03-01T03:45:13.232Z,4.60
2024-03-01T03:47:42.763Z,4.60
2024-03-01T03:50:11.617Z,4.60
2024-03-01T03:52:39.881Z,4.60
2024-03-01T03:55:08.909Z,4.60
2024-03-01T03:57:37.662Z,4.60
2024-03-01T04:00:10.853Z,4.60
2024-03-01T04:02:39.568Z,4.60
2024-03-01T04:05:09.723Z,4.60
2024-03-01T04:07:38.185Z,4.60
2024-03-01T04:10:07.804Z,4.60
2024-03-01T04:12:37.554Z,4.60
2024-03-01T04:15:07.019Z,4.60
2024-03-01T04:17:36.229Z,4.50
2024-03-01T04:20:07.308Z,4.50
2024-03-01T04:22:36.926Z,4.50
2024-03-01T04:25:06.578Z,4.50
2024-03-01T04:27:35.101Z,4.50
2024-03-01T04:30:03.175Z,4.50
2024-03-01T04:32:31.344Z,4.50
2024-03-01T04:34:59.492Z,4.40
2024-03-01T04:37:27.611Z,4.40
2024-03-01T04:39:57.166Z,4.40
2024-03-01T04:42:25.311Z,4.40
2024-03-01T04:44:53.440Z,4.40
2024-03-01T04:47:21.551Z,4.40
2024-03-01T04:49:49.653Z,4.40
2024-03-01T04:52:17.803Z,4.40
2024-03-01T04:54:45.883Z,4.40
2024-03-01T04:57:15.366Z,4.40
2024-03-01T04:59:43.679Z,4.40
2024-03-01T05:02:11.908Z,4.40
2024-03-01T05:04:42.484Z,4.40
2024-03-01T05:07:12.802Z,4.40
2024-03-01T05:09:44.060Z,4.40
2024-03-01T05:12:15.245Z,4.40
2024-03-01T05:14:44.877Z,4.40
2024-03-01T05:17:14.715Z,4.40
2024-03-01T05:19:42.981Z,4.30
2024-03-01T05:22:13.680Z,4.40
2024-03-01T05:24:42.272Z,4.40
2024-03-01T05:27:16.444Z,4.30
2024-03-01T05:29:46.064Z,4.30
2024-03-01T05:32:14.290Z,4.30
2024-03-01T05:34:42.544Z,4.30
2024-03-01T05:37:10.768Z,4.30
2024-03-01T05:39:40.110Z,4.30
2024-03-01T05:42:08.381Z,4.30
2024-03-01T05:44:36.468Z,4.20
2024-03-01T05:47:06.457Z,4.20
2024-03-01T05:49:34.630Z,4.20
2024-03-01T05:52:04.515Z,4.20
2024-03-01T05:54:32.749Z,4.20
2024-03-01T05:57:00.849Z,4.20
2024-03-01T05:59:29.076Z,4.20
2024-03-01T06:01:57.297Z,4.20
2024-03-01T06:04:26.910Z,4.20
2024-03-01T06:06:55.110Z,4.30
2024-03-01T06:09:23.219Z,4.30
2024-03-01T06:11:51.298Z,4.30
2024-03-01T06:14:19.965Z,4.30
2024-03-01T06:16:48.853Z,4.30
2024-03-01T06:19:18.332Z,4.30
2024-03-01T06:21:47.995Z,4.40
2024-03-01T06:24:16.148Z,4.40
2024-03-01T06:26:44.234Z,4.40
2024-03-01T06:29:12.404Z,4.40
2024-03-01T06:31:40.635Z,4.40
2024-03-01T06:34:08.810Z,4.40
2024-03-01T06:36:36.979Z,4.40
2024-03-01T06:39:07.441Z,4.40
2024-03-01T06:41:35.510Z,4.40
2024-03-01T06:44:03.780Z,4.50
2024-03-01T06:46:32.045Z,4.40
2024-03-01T06:49:01.748Z,4.40
2024-03-01T06:51:30.461Z,4.40
2024-03-01T06:53:58.581Z,4.40
2024-03-01T06:56:28.047Z,4.40
2024-03-01T06:58:56.131Z,4.50
2024-03-01T07:01:24.330Z,4.50
2024-03-01T07:03:52.496Z,4.50
2024-03-01T07:06:20.838Z,4.50
2024-03-01T07:08:49.563Z,4.60
2024-03-01T07:11:18.009Z,4.60
2024-03-01T07:13:49.927Z,4.60
2024-03-01T07:16:18.143Z,4.60
2024-03-01T07:18:46.252Z,4.60
2024-03-01T07:21:14.349Z,4.70
2024-03-01T07:23:42.423Z,4.70
2024-03-01T07:26:10.556Z,4.80
2024-03-01T07:28:38.882Z,4.80
2024-03-01T07:31:08.652Z,4.90
2024-03-01T07:33:36.754Z,4.90
2024-03-01T07:36:05.492Z,4.90
2024-03-01T07:38:33.591Z,5.00
2024-03-01T07:41:01.722Z,4.90
2024-03-01T07:43:30.170Z,5.00
2024-03-01T07:45:58.480Z,5.10
2024-03-01T07:48:28.672Z,5.10
2024-03-01T07:50:57.279Z,5.10
2024-03-01T07:53:25.488Z,5.10
2024-03-01T07:55:53.918Z,5.20
2024-03-01T07:58:22.408Z,5.20
2024-03-01T08:00:50.700Z,5.30
2024-03-01T08:03:19.187Z,5.40
2024-03-01T08:05:48.750Z,5.40
2024-03-01T08:08:41.363Z,5.50
2024-03-01T08:11:10.940Z,5.50
2024-03-01T08:13:39.565Z,5.60
2024-03-01T08:16:14.763Z,5.60
2024-03-01T08:18:45.095Z,5.70
2024-03-01T08:21:18.786Z,5.70
2024-03-01T08:23:47.457Z,5.80
2024-03-01T08:26:25.268Z,5.80
2024-03-01T08:28:53.674Z,5.90
2024-03-01T08:31:28.245Z,6.00
2024-03-01T08:34:08.687Z,6.20
2024-03-01T08:36:39.370Z,6.30
2024-03-01T08:39:17.390Z,6.50
2024-03-01T08:41:47.267Z,6.50
2024-03-01T08:44:55.043Z,6.50
2024-03-01T08:47:29.679Z,6.60
2024-03-01T08:50:43.173Z,6.70
2024-03-01T08:53:59.009Z,6.70
2024-03-01T08:56:36.751Z,6.70
2024-03-01T08:59:37.268Z,6.80
2024-03-01T09:02:10.973Z,6.90
2024-03-01T09:04:40.013Z,6.90
2024-03-01T09:07:19.256Z,7.10
2024-03-01T09:09:49.369Z,7.40
2024-03-01T09:12:27.302Z,7.60
2024-03-01T09:15:01.968Z,7.60
2024-03-01T09:17:32.804Z,7.70
2024-03-01T09:20:01.125Z,7.70
2024-03-01T09:22:28.453Z,7.80
2024-03-01T09:24:58.271Z,7.80
2024-03-01T09:27:32.382Z,7.70
2024-03-01T09:30:06.548Z,7.80
2024-03-01T09:32:35.523Z,8.00
2024-03-01T09:35:07.565Z,8.30
2024-03-01T09:37:35.903Z,8.30
2024-03-01T09:41:17.165Z,8.60
2024-03-01T09:43:55.001Z,8.60
2024-03-01T09:46:39.479Z,8.90
2024-03-01T09:49:26.371Z,9.10
2024-03-01T09:52:06.070Z,9.20
2024-03-01T09:54:46.596Z,9.30
2024-03-01T09:57:25.970Z,9.40
2024-03-01T10:00:09.747Z,9.40
2024-03-01T10:02:48.736Z,9.50
2024-03-01T10:05:38.366Z,9.60
2024-03-01T10:08:24.249Z,9.60
2024-03-01T10:11:17.028Z,9.60
2024-03-01T10:14:06.398Z,9.80
2024-03-01T10:16:52.025Z,9.90
2024-03-01T10:19:50.999Z,10.00
2024-03-01T10:22:34.474Z,10.00
2024-03-01T10:25:32.373Z,10.10
2024-03-01T10:28:20.835Z,10.30
2024-03-01T10:31:00.767Z,10.40
2024-03-01T10:33:51.942Z,10.50
2024-03-01T10:36:35.501Z,10.50
2024-03-01T10:39:12.002Z,10.50
2024-03-01T10:42:07.169Z,10.50
2024-03-01T10:44:45.304Z,10.50
2024-03-01T10:47:23.004Z,10.60
2024-03-01T10:50:15.857Z,10.60
2024-03-01T10:52:51.534Z,10.70
2024-03-01T10:55:25.127Z,10.80
2024-03-01T10:58:04.037Z,10.90
2024-03-01T11:00:40.413Z,11.00
2024-03-01T11:03:19.372Z,11.10
2024-03-01T11:06:09.863Z,11.20
2024-03-01T11:08:51.799Z,11.30
2024-03-01T11:11:29.570Z,11.30
2024-03-01T11:14:02.704Z,11.30
2024-03-01T11:16:36.537Z,11.40
2024-03-01T11:19:13.972Z,11.40
2024-03-01T11:21:49.143Z,11.40
2024-03-01T11:24:23.890Z,11.50
2024-03-01T11:26:59.586Z,11.60
2024-03-01T11:29:38.416Z,11.70
2024-03-01T11:32:20.407Z,11.80
2024-03-01T11:35:08.628Z,11.80
2024-03-01T11:37:51.880Z,11.80
2024-03-01T11:40:39.676Z,11.80
2024-03-01T11:43:32.787Z,11.90
2024-03-01T11:46:22.822Z,11.90
2024-03-01T11:49:20.607Z,11.90
2024-03-01T11:52:09.859Z,11.90
2024-03-01T11:54:58.704Z,12.00
2024-03-01T11:57:39.325Z,12.00
2024-03-01T12:00:40.682Z,12.00
2024-03-01T12:03:56.866Z,12.00
2024-03-01T12:06:48.881Z,12.20
2024-03-01T12:09:32.824Z,12.30
2024-03-01T12:12:16.421Z,12.20
2024-03-01T12:14:57.164Z,12.20
2024-03-01T12:17:33.675Z,12.00
2024-03-01T12:20:07.256Z,11.80
2024-03-01T12:22:51.710Z,11.70
2024-03-01T12:25:26.311Z,11.60
2024-03-01T12:28:29.863Z,11.60
2024-03-01T12:31:13.231Z,11.60
2024-03-01T12:34:12.265Z,11.60
2024-03-01T12:36:54.951Z,11.50
2024-03-01T12:39:29.610Z,11.70
2024-03-01T12:42:11.922Z,11.70
2024-03-01T12:45:06.338Z,11.70
2024-03-01T12:47:57.305Z,11.70
2024-03-01T12:50:42.904Z,12.00
2024-03-01T12:53:52.566Z,12.30
2024-03-01T12:56:34.178Z,12.50
2024-03-01T12:59:36.855Z,12.60
2024-03-01T13:02:35.796Z,12.70
2024-03-01T13:05:19.417Z,12.90
2024-03-01T13:07:51.764Z,13.00
2024-03-01T13:10:24.030Z,13.10
2024-03-01T13:12:59.257Z,13.30
2024-03-01T13:15:40.246Z,13.40
2024-03-01T13:18:13.990Z,13.50
2024-03-01T13:21:05.706Z,13.60
2024-03-01T13:23:53.936Z,13.50
2024-03-01T13:26:41.063Z,13.60
2024-03-01T13:29:16.471Z,13.70
2024-03-01T13:32:00.662Z,13.80
2024-03-01T13:34:32.788Z,13.70
2024-03-01T13:37:11.726Z,13.80
2024-03-01T13:39:47.450Z,13.80
2024-03-01T13:42:29.046Z,14.10
2024-03-01T13:45:07.075Z,14.20
2024-03-01T13:47:40.013Z,14.00
2024-03-01T13:50:10.364Z,13.70
2024-03-01T13:52:41.540Z,13.70
2024-03-01T13:55:16.769Z,13.70
2024-03-01T13:57:46.337Z,13.60
2024-03-01T14:00:25.021Z,13.90
2024-03-01T14:02:56.575Z,13.90
2024-03-01T14:05:29.553Z,14.10
2024-03-01T14:07:59.944Z,13.80
2024-03-01T14:10:29.050Z,13.80
2024-03-01T14:12:57.907Z,14.00
2024-03-01T14:15:26.242Z,14.10
2024-03-01T14:17:56.027Z,14.30
2024-03-01T14:20:24.171Z,14.60
2024-03-01T14:22:54.796Z,14.80
2024-03-01T14:25:25.502Z,14.80
2024-03-01T14:27:56.626Z,14.60
2024-03-01T14:30:27.371Z,14.50
2024-03-01T14:33:11.532Z,14.20
2024-03-01T14:35:41.676Z,13.90
2024-03-01T14:38:14.937Z,13.80
2024-03-01T14:40:43.271Z,13.90
2024-03-01T14:43:11.881Z,13.80
2024-03-01T14:45:41.098Z,13.70
2024-03-01T14:48:13.106Z,13.60
2024-03-01T14:50:46.105Z,13.50
2024-03-01T14:53:35.255Z,13.40
2024-03-01T14:56:08.144Z,13.40
2024-03-01T14:58:37.481Z,13.30
2024-03-01T15:01:06.441Z,13.30
2024-03-01T15:03:37.296Z,13.30
2024-03-01T15:06:08.552Z,13.20
2024-03-01T15:08:37.217Z,13.20
2024-03-01T15:11:08.774Z,13.20
2024-03-01T15:13:37.721Z,13.10
2024-03-01T15:16:07.641Z,13.10
2024-03-01T15:18:43.197Z,13.10
2024-03-01T15:21:13.559Z,13.00
2024-03-01T15:23:42.617Z,12.90
2024-03-01T15:26:12.026Z,12.90
2024-03-01T15:28:41.436Z,12.90
2024-03-01T15:31:11.763Z,12.90
2024-03-01T15:33:40.263Z,12.90
2024-03-01T15:36:10.121Z,12.80
2024-03-01T15:38:38.605Z,12.70
2024-03-01T15:41:06.927Z,12.70
2024-03-01T15:43:36.527Z,12.70
2024-03-01T15:46:06.459Z,12.60
2024-03-01T15:48:35.105Z,12.60
2024-03-01T15:51:03.466Z,12.60
2024-03-01T15:53:33.195Z,12.50
2024-03-01T15:56:02.915Z,12.50
2024-03-01T15:58:31.542Z,12.50
2024-03-01T16:01:00.426Z,12.40
2024-03-01T16:03:28.818Z,12.30
2024-03-01T16:05:57.110Z,12.30
2024-03-01T16:08:26.652Z,12.30
2024-03-01T16:10:59.095Z,12.30
2024-03-01T16:13:33.671Z,12.30
2024-03-01T16:16:05.841Z,12.20
2024-03-01T16:18:38.507Z,12.20
2024-03-01T16:21:08.697Z,12.20
2024-03-01T16:23:40.708Z,12.10
2024-03-01T16:26:14.452Z,12.10
2024-03-01T16:28:43.885Z,12.10
2024-03-01T16:31:12.517Z,12.00
2024-03-01T16:33:41.182Z,12.00
2024-03-01T16:36:19.390Z,12.00
2024-03-01T16:38:49.041Z,12.00
2024-03-01T16:41:36.702Z,11.90
2024-03-01T16:44:06.490Z,11.90
2024-03-01T16:46:40.723Z,11.90
2024-03-01T16:49:35.028Z,11.80
2024-03-01T16:52:04.668Z,11.80
2024-03-01T16:54:35.885Z,11.80
2024-03-01T16:57:09.929Z,11.70
2024-03-01T16:59:39.090Z,11.70
2024-03-01T17:02:28.265Z,11.60
2024-03-01T17:04:58.014Z,11.60
2024-03-01T17:07:45.802Z,11.60
2024-03-01T17:10:24.454Z,11.50
2024-03-01T17:12:59.349Z,11.50
2024-03-01T17:15:29.105Z,11.40
2024-03-01T17:17:58.054Z,11.40
2024-03-01T17:20:26.654Z,11.40
2024-03-01T17:22:55.331Z,11.40
2024-03-01T17:25:23.935Z,11.30
2024-03-01T17:27:52.151Z,11.30
2024-03-01T17:30:21.618Z,11.20
2024-03-01T17:32:50.358Z,11.20
2024-03-01T17:35:22.215Z,11.20
2024-03-01T17:37:51.019Z,11.20
2024-03-01T17:40:19.542Z,11.20
2024-03-01T17:42:48.699Z,11.10
2024-03-01T17:45:17.478Z,11.10
2024-03-01T17:47:47.703Z,11.00
2024-03-01T17:50:16.157Z,11.00
2024-03-01T17:52:44.343Z,11.00
2024-03-01T17:55:12.632Z,11.00
2024-03-01T17:57:41.600Z,11.00
2024-03-01T18:00:12.744Z,10.90
2024-03-01T18:02:41.069Z,10.90
2024-03-01T18:05:11.154Z,10.90
2024-03-01T18:07:40.409Z,10.90
2024-03-01T18:10:09.950Z,10.80
2024-03-01T18:12:38.159Z,10.90
2024-03-01T18:15:08.513Z,10.80
2024-03-01T18:17:36.699Z,10.80
2024-03-01T18:20:05.752Z,10.80
2024-03-01T18:22:35.614Z,10.80
2024-03-01T18:25:05.673Z,10.80
2024-03-01T18:27:34.102Z,10.80
2024-03-01T18:30:02.259Z,10.80
2024-03-01T18:32:30.456Z,10.70
2024-03-01T18:34:58.639Z,10.80
2024-03-01T18:37:27.266Z,10.70
2024-03-01T18:39:56.829Z,10.70
2024-03-01T18:42:25.026Z,10.70
2024-03-01T18:44:53.158Z,10.60
2024-03-01T18:47:21.325Z,10.60
2024-03-01T18:49:50.518Z,10.60
2024-03-01T18:52:18.957Z,10.60
2024-03-01T18:54:47.091Z,10.50
2024-03-01T18:57:16.578Z,10.50
2024-03-01T18:59:48.552Z,10.50
2024-03-01T19:02:21.632Z,10.50
2024-03-01T19:04:56.278Z,10.50
2024-03-01T19:07:24.738Z,10.50
2024-03-01T19:09:52.982Z,10.50
2024-03-01T19:12:24.710Z,10.50
2024-03-01T19:14:53.010Z,10.40
2024-03-01T19:17:21.259Z,10.40
2024-03-01T19:19:49.372Z,10.30
2024-03-01T19:22:17.563Z,10.30
2024-03-01T19:24:45.734Z,10.30
2024-03-01T19:27:13.869Z,10.20
2024-03-01T19:29:43.784Z,10.20
2024-03-01T19:32:11.919Z,10.20
2024-03-01T19:34:40.038Z,10.20
2024-03-01T19:37:08.301Z,10.20
2024-03-01T19:39:36.469Z,10.20
2024-03-01T19:42:06.274Z,10.10
2024-03-01T19:44:34.431Z,10.10
2024-03-01T19:47:04.276Z,10.00
2024-03-01T19:49:32.543Z,10.10
2024-03-01T19:52:00.798Z,10.10
2024-03-01T19:54:29.044Z,10.00
2024-03-01T19:56:57.790Z,10.10
2024-03-01T19:59:26.105Z,10.00
2024-03-01T20:01:54.373Z,10.00
2024-03-01T20:04:23.996Z,10.00
2024-03-01T20:06:52.896Z,10.00
2024-03-01T20:09:21.109Z,10.00
2024-03-01T20:14:23.862Z,10.00
2024-03-01T20:16:53.190Z,10.00
2024-03-01T20:19:22.840Z,10.00
2024-03-01T20:21:51.838Z,9.90
2024-03-01T20:24:20.029Z,9.90
2024-03-01T20:26:48.163Z,9.90
2024-03-01T20:29:16.293Z,9.90
2024-03-01T20:31:45.079Z,9.90
2024-03-01T20:34:13.282Z,9.90
2024-03-01T20:36:42.747Z,9.80
2024-03-01T20:39:11.186Z,9.80
2024-03-01T20:41:39.334Z,9.80
2024-03-01T20:44:07.498Z,9.80
2024-03-01T20:46:35.630Z,9.80
2024-03-01T20:49:04.473Z,9.80
2024-03-01T20:51:32.687Z,9.80
2024-03-01T20:54:02.128Z,9.80
2024-03-01T20:56:30.203Z,9.80
2024-03-01T20:58:58.323Z,9.80
2024-03-01T21:01:26.548Z,9.80
2024-03-01T21:03:54.716Z,9.80
2024-03-01T21:06:22.918Z,9.80
2024-03-01T21:08:51.053Z,9.80
2024-03-01T21:11:20.593Z,9.80
2024-03-01T21:13:49.268Z,9.70
2024-03-01T21:16:17.473Z,9.70
2024-03-01T21:18:45.597Z,9.70
2024-03-01T21:21:13.723Z,9.70
2024-03-01T21:23:41.921Z,9.70
2024-03-01T21:26:10.082Z,9.60
2024-03-01T21:28:39.749Z,9.60
2024-03-01T21:31:07.869Z,9.60
2024-03-01T21:33:36.027Z,9.60
2024-03-01T21:36:04.609Z,9.60
2024-03-01T21:38:32.714Z,9.60
2024-03-01T21:41:02.401Z,9.60
2024-03-01T21:43:30.543Z,9.60
2024-03-01T21:46:01.358Z,9.60
2024-03-01T21:48:30.171Z,9.60
2024-03-01T21:50:58.317Z,9.50
2024-03-01T21:53:26.511Z,9.50
2024-03-01T21:55:54.709Z,9.50
2024-03-01T21:58:23.250Z,9.50
2024-03-01T22:00:51.410Z,9.50
2024-03-01T22:03:20.959Z,9.40
2024-03-01T22:05:50.608Z,9.40
2024-03-01T22:08:18.689Z,9.40
2024-03-01T22:10:46.875Z,9.40
2024-03-01T22:13:17.509Z,9.40
2024-03-01T22:15:46.212Z,9.40
2024-03-01T22:18:14.568Z,9.40
2024-03-01T22:20:44.211Z,9.40
2024-03-01T22:23:13.028Z,9.40
2024-03-01T22:25:41.149Z,9.40
2024-03-01T22:28:10.051Z,9.40
2024-03-01T22:30:38.216Z,9.40
2024-03-01T22:33:06.953Z,9.40
2024-03-01T22:35:35.286Z,9.40
2024-03-01T22:38:05.202Z,9.40
2024-03-01T22:40:34.921Z,9.40
2024-03-01T22:43:03.007Z,9.30
2024-03-01T22:45:32.245Z,9.30
2024-03-01T22:48:00.927Z,9.40
2024-03-01T22:50:29.128Z,9.30
2024-03-01T22:52:57.303Z,9.40
2024-03-01T22:55:41.133Z,9.40
2024-03-01T22:58:11.843Z,9.40
2024-03-01T23:00:47.085Z,9.30
2024-03-01T23:03:41.210Z,9.40
2024-03-01T23:06:14.192Z,9.30
2024-03-01T23:08:47.452Z,9.30
2024-03-01T23:11:41.333Z,9.30
2024-03-01T23:14:45.681Z,9.30
2024-03-01T23:17:14.611Z,9.20
2024-03-01T23:19:43.325Z,9.20
2024-03-01T23:22:17.225Z,9.30
2024-03-01T23:24:45.430Z,9.20
2024-03-01T23:27:15.997Z,9.20
2024-03-01T23:29:44.848Z,9.20
2024-03-01T23:32:12.954Z,9.20
2024-03-01T23:34:41.061Z,9.30
2024-03-01T23:37:09.243Z,9.20
2024-03-01T23:39:37.405Z,9.20
2024-03-01T23:42:05.994Z,9.20
2024-03-01T23:44:36.555Z,9.20
2024-03-01T23:47:05.032Z,9.20
2024-03-01T23:49:33.131Z,9.20
2024-03-01T23:52:01.275Z,9.20
2024-03-01T23:54:29.467Z,9.10
2024-03-01T23:56:57.695Z,9.10
2024-03-01T23:59:25.820Z,9.10
